sensor_id;sensor_type;location;lat;lon;timestamp;temperature;humidity
15879;DHT22;61999;51.514;14.614;2022-07-23T00:01:08;16.00;50.50
15879;DHT22;61999;51.514;14.614;2022-07-23T00:03:36;15.90;50.80
15879;DHT22;61999;51.514;14.614;2022-07-23T00:06:05;15.90;51.00
15879;DHT22;61999;51.514;14.614;2022-07-23T00:08:34;15.90;51.80
15879;DHT22;61999;51.514;14.614;2022-07-23T00:11:04;16.00;51.60
15879;DHT22;61999;51.514;14.614;2022-07-23T00:13:33;15.90;51.60
15879;DHT22;61999;51.514;14.614;2022-07-23T00:16:02;16.00;51.70
15879;DHT22;61999;51.514;14.614;2022-07-23T00:18:31;16.00;51.60
15879;DHT22;61999;51.514;14.614;2022-07-23T00:20:59;15.90;51.70
15879;DHT22;61999;51.514;14.614;2022-07-23T00:23:28;15.90;51.90
15879;DHT22;61999;51.514;14.614;2022-07-23T00:25:57;16.00;52.30
15879;DHT22;61999;51.514;14.614;2022-07-23T00:28:27;16.00;52.30
15879;DHT22;61999;51.514;14.614;2022-07-23T00:30:55;16.00;52.10
15879;DHT22;61999;51.514;14.614;2022-07-23T00:33:24;15.90;52.00
15879;DHT22;61999;51.514;14.614;2022-07-23T00:35:54;15.90;52.20
15879;DHT22;61999;51.514;14.614;2022-07-23T00:38:22;15.90;52.30
15879;DHT22;61999;51.514;14.614;2022-07-23T00:40:51;16.00;52.30
15879;DHT22;61999;51.514;14.614;2022-07-23T00:43:20;15.90;52.20
15879;DHT22;61999;51.514;14.614;2022-07-23T00:45:50;15.90;52.20
15879;DHT22;61999;51.514;14.614;2022-07-23T00:48:19;15.90;52.30
15879;DHT22;61999;51.514;14.614;2022-07-23T00:50:47;15.80;52.30
15879;DHT22;61999;51.514;14.614;2022-07-23T00:53:16;15.80;52.20
15879;DHT22;61999;51.514;14.614;2022-07-23T00:55:45;15.80;52.20
15879;DHT22;61999;51.514;14.614;2022-07-23T00:58:16;15.70;52.20
15879;DHT22;61999;51.514;14.614;2022-07-23T01:00:45;15.80;52.50
15879;DHT22;61999;51.514;14.614;2022-07-23T01:03:15;15.70;52.30
15879;DHT22;61999;51.514;14.614;2022-07-23T01:05:44;15.70;52.40
15879;DHT22;61999;51.514;14.614;2022-07-23T01:08:12;15.70;52.70
15879;DHT22;61999;51.514;14.614;2022-07-23T01:10:42;15.60;52.50
15879;DHT22;61999;51.514;14.614;2022-07-23T01:13:12;15.60;53.30
15879;DHT22;61999;51.514;14.614;2022-07-23T01:15:40;15.70;53.10
15879;DHT22;61999;51.514;14.614;2022-07-23T01:18:08;15.60;53.20
15879;DHT22;61999;51.514;14.614;2022-07-23T01:20:40;15.60;53.50
15879;DHT22;61999;51.514;14.614;2022-07-23T01:23:10;15.60;53.40
15879;DHT22;61999;51.514;14.614;2022-07-23T01:25:47;15.60;53.60
15879;DHT22;61999;51.514;14.614;2022-07-23T01:28:16;15.60;53.50
15879;DHT22;61999;51.514;14.614;2022-07-23T01:30:45;15.50;53.50
15879;DHT22;61999;51.514;14.614;2022-07-23T01:33:15;15.50;53.60
15879;DHT22;61999;51.514;14.614;2022-07-23T01:35:43;15.50;53.50
15879;DHT22;61999;51.514;14.614;2022-07-23T01:38:13;15.40;53.50
15879;DHT22;61999;51.514;14.614;2022-07-23T01:40:41;15.40;53.50
15879;DHT22;61999;51.514;14.614;2022-07-23T01:43:10;15.40;53.40
15879;DHT22;61999;51.514;14.614;2022-07-23T01:45:38;15.40;53.50
15879;DHT22;61999;51.514;14.614;2022-07-23T01:48:07;15.40;53.70
15879;DHT22;61999;51.514;14.614;2022-07-23T01:50:36;15.30;53.60
15879;DHT22;61999;51.514;14.614;2022-07-23T01:53:07;15.30;53.60
15879;DHT22;61999;51.514;14.614;2022-07-23T01:55:37;15.30;53.60
15879;DHT22;61999;51.514;14.614;2022-07-23T01:58:05;15.30;53.60
15879;DHT22;61999;51.514;14.614;2022-07-23T02:00:34;15.20;53.60
15879;DHT22;61999;51.514;14.614;2022-07-23T02:03:03;15.20;53.80
15879;DHT22;61999;51.514;14.614;2022-07-23T02:05:31;15.20;53.70
15879;DHT22;61999;51.514;14.614;2022-07-23T02:08:00;15.10;53.70
15879;DHT22;61999;51.514;14.614;2022-07-23T02:10:29;15.10;54.30
15879;DHT22;61999;51.514;14.614;2022-07-23T02:12:58;15.10;54.30
15879;DHT22;61999;51.514;14.614;2022-07-23T02:15:28;15.10;54.30
15879;DHT22;61999;51.514;14.614;2022-07-23T02:17:57;15.10;54.20
15879;DHT22;61999;51.514;14.614;2022-07-23T02:20:25;15.10;54.20
15879;DHT22;61999;51.514;14.614;2022-07-23T02:22:53;15.00;54.10
15879;DHT22;61999;51.514;14.614;2022-07-23T02:25:22;15.00;54.10
15879;DHT22;61999;51.514;14.614;2022-07-23T02:27:50;15.00;54.30
15879;DHT22;61999;51.514;14.614;2022-07-23T02:30:20;14.90;54.40
15879;DHT22;61999;51.514;14.614;2022-07-23T02:32:48;14.90;54.40
15879;DHT22;61999;51.514;14.614;2022-07-23T02:35:17;14.90;54.40
15879;DHT22;61999;51.514;14.614;2022-07-23T02:37:45;14.90;54.50
15879;DHT22;61999;51.514;14.614;2022-07-23T02:40:14;14.90;54.60
15879;DHT22;61999;51.514;14.614;2022-07-23T02:42:42;14.90;54.60
15879;DHT22;61999;51.514;14.614;2022-07-23T02:45:10;14.80;54.70
15879;DHT22;61999;51.514;14.614;2022-07-23T02:47:40;14.80;55.10
15879;DHT22;61999;51.514;14.614;2022-07-23T02:50:08;14.90;54.90
15879;DHT22;61999;51.514;14.614;2022-07-23T02:52:38;14.90;55.00
15879;DHT22;61999;51.514;14.614;2022-07-23T02:55:08;14.90;55.10
15879;DHT22;61999;51.514;14.614;2022-07-23T02:57:37;14.90;55.20
15879;DHT22;61999;51.514;14.614;2022-07-23T03:00:07;14.90;55.10
15879;DHT22;61999;51.514;14.614;2022-07-23T03:02:36;14.90;55.10
15879;DHT22;61999;51.514;14.614;2022-07-23T03:05:07;14.90;55.00
15879;DHT22;61999;51.514;14.614;2022-07-23T03:07:36;14.90;55.20
15879;DHT22;61999;51.514;14.614;2022-07-23T03:10:04;14.90;55.10
15879;DHT22;61999;51.514;14.614;2022-07-23T03:12:33;14.90;55.20
15879;DHT22;61999;51.514;14.614;2022-07-23T03:15:02;14.90;55.20
15879;DHT22;61999;51.514;14.614;2022-07-23T03:17:31;14.90;55.20
15879;DHT22;61999;51.514;14.614;2022-07-23T03:19:59;14.90;55.70
15879;DHT22;61999;51.514;14.614;2022-07-23T03:22:29;15.00;55.70
15879;DHT22;61999;51.514;14.614;2022-07-23T03:24:57;15.00;55.70
15879;DHT22;61999;51.514;14.614;2022-07-23T03:27:27;15.00;56.10
15879;DHT22;61999;51.514;14.614;2022-07-23T03:29:58;15.10;56.50
15879;DHT22;61999;51.514;14.614;2022-07-23T03:32:29;15.10;56.20
15879;DHT22;61999;51.514;14.614;2022-07-23T03:34:58;15.10;56.20
15879;DHT22;61999;51.514;14.614;2022-07-23T03:37:26;15.20;56.40
15879;DHT22;61999;51.514;14.614;2022-07-23T03:39:56;15.30;56.20
15879;DHT22;61999;51.514;14.614;2022-07-23T03:42:24;15.30;56.20
15879;DHT22;61999;51.514;14.614;2022-07-23T03:44:52;15.30;56.20
15879;DHT22;61999;51.514;14.614;2022-07-23T03:47:21;15.40;56.10
15879;DHT22;61999;51.514;14.614;2022-07-23T03:49:49;15.40;56.00
15879;DHT22;61999;51.514;14.614;2022-07-23T03:52:18;15.40;56.00
15879;DHT22;61999;51.514;14.614;2022-07-23T03:54:46;15.40;55.90
15879;DHT22;61999;51.514;14.614;2022-07-23T03:57:15;15.50;56.00
15879;DHT22;61999;51.514;14.614;2022-07-23T03:59:44;15.50;56.20
15879;DHT22;61999;51.514;14.614;2022-07-23T04:02:12;15.50;56.00
15879;DHT22;61999;51.514;14.614;2022-07-23T04:04:41;15.60;56.10
15879;DHT22;61999;51.514;14.614;2022-07-23T04:07:09;15.50;56.00
15879;DHT22;61999;51.514;14.614;2022-07-23T04:09:38;15.60;56.20
15879;DHT22;61999;51.514;14.614;2022-07-23T04:12:11;15.60;56.10
15879;DHT22;61999;51.514;14.614;2022-07-23T04:14:41;15.70;56.10
15879;DHT22;61999;51.514;14.614;2022-07-23T04:17:09;15.80;56.30
15879;DHT22;61999;51.514;14.614;2022-07-23T04:19:37;15.80;56.20
15879;DHT22;61999;51.514;14.614;2022-07-23T04:22:08;15.80;56.10
15879;DHT22;61999;51.514;14.614;2022-07-23T04:24:37;15.90;56.00
15879;DHT22;61999;51.514;14.614;2022-07-23T04:27:06;15.90;56.10
15879;DHT22;61999;51.514;14.614;2022-07-23T04:29:34;15.90;56.00
15879;DHT22;61999;51.514;14.614;2022-07-23T04:32:04;15.90;55.90
15879;DHT22;61999;51.514;14.614;2022-07-23T04:34:34;16.00;56.10
15879;DHT22;61999;51.514;14.614;2022-07-23T04:37:03;16.10;56.30
15879;DHT22;61999;51.514;14.614;2022-07-23T04:39:31;16.20;56.30
15879;DHT22;61999;51.514;14.614;2022-07-23T04:41:59;16.20;56.20
15879;DHT22;61999;51.514;14.614;2022-07-23T04:44:28;16.20;56.00
15879;DHT22;61999;51.514;14.614;2022-07-23T04:46:56;16.30;55.80
15879;DHT22;61999;51.514;14.614;2022-07-23T04:49:26;16.30;55.70
15879;DHT22;61999;51.514;14.614;2022-07-23T04:51:56;16.40;55.80
15879;DHT22;61999;51.514;14.614;2022-07-23T04:54:25;16.40;55.80
15879;DHT22;61999;51.514;14.614;2022-07-23T04:56:53;16.50;55.70
15879;DHT22;61999;51.514;14.614;2022-07-23T04:59:22;16.60;55.80
15879;DHT22;61999;51.514;14.614;2022-07-23T05:01:50;16.60;55.50
15879;DHT22;61999;51.514;14.614;2022-07-23T05:04:18;16.60;55.40
15879;DHT22;61999;51.514;14.614;2022-07-23T05:06:48;16.60;55.40
15879;DHT22;61999;51.514;14.614;2022-07-23T05:09:16;16.50;55.30
15879;DHT22;61999;51.514;14.614;2022-07-23T05:11:45;16.50;55.30
15879;DHT22;61999;51.514;14.614;2022-07-23T05:14:13;16.50;55.30
15879;DHT22;61999;51.514;14.614;2022-07-23T05:16:41;16.60;55.40
15879;DHT22;61999;51.514;14.614;2022-07-23T05:19:10;16.60;55.40
15879;DHT22;61999;51.514;14.614;2022-07-23T05:21:38;16.70;55.50
15879;DHT22;61999;51.514;14.614;2022-07-23T05:24:08;16.70;55.40
15879;DHT22;61999;51.514;14.614;2022-07-23T05:26:36;16.70;55.30
15879;DHT22;61999;51.514;14.614;2022-07-23T05:29:04;16.80;55.50
15879;DHT22;61999;51.514;14.614;2022-07-23T05:31:33;16.80;55.30
15879;DHT22;61999;51.514;14.614;2022-07-23T05:34:01;16.80;55.20
15879;DHT22;61999;51.514;14.614;2022-07-23T05:36:31;16.80;55.20
15879;DHT22;61999;51.514;14.614;2022-07-23T05:39:00;16.70;55.10
15879;DHT22;61999;51.514;14.614;2022-07-23T05:41:30;16.70;55.30
15879;DHT22;61999;51.514;14.614;2022-07-23T05:43:58;16.70;55.30
15879;DHT22;61999;51.514;14.614;2022-07-23T05:46:27;16.70;55.30
15879;DHT22;61999;51.514;14.614;2022-07-23T05:48:55;16.70;55.30
15879;DHT22;61999;51.514;14.614;2022-07-23T05:51:26;16.80;55.40
15879;DHT22;61999;51.514;14.614;2022-07-23T05:53:54;16.90;55.40
15879;DHT22;61999;51.514;14.614;2022-07-23T05:56:22;16.90;55.40
15879;DHT22;61999;51.514;14.614;2022-07-23T05:58:52;16.90;55.20
15879;DHT22;61999;51.514;14.614;2022-07-23T06:01:20;17.00;55.20
15879;DHT22;61999;51.514;14.614;2022-07-23T06:03:49;16.90;54.90
15879;DHT22;61999;51.514;14.614;2022-07-23T06:06:18;16.90;55.00
15879;DHT22;61999;51.514;14.614;2022-07-23T06:08:46;16.90;54.80
15879;DHT22;61999;51.514;14.614;2022-07-23T06:11:14;16.90;55.00
15879;DHT22;61999;51.514;14.614;2022-07-23T06:13:43;17.00;55.10
15879;DHT22;61999;51.514;14.614;2022-07-23T06:16:13;17.00;55.20
15879;DHT22;61999;51.514;14.614;2022-07-23T06:18:41;17.10;55.10
15879;DHT22;61999;51.514;14.614;2022-07-23T06:21:10;17.10;55.00
15879;DHT22;61999;51.514;14.614;2022-07-23T06:23:59;17.20;54.90
15879;DHT22;61999;51.514;14.614;2022-07-23T06:26:27;17.30;54.90
15879;DHT22;61999;51.514;14.614;2022-07-23T06:28:55;17.30;55.00
15879;DHT22;61999;51.514;14.614;2022-07-23T06:31:25;17.30;54.90
15879;DHT22;61999;51.514;14.614;2022-07-23T06:33:54;17.40;55.00
15879;DHT22;61999;51.514;14.614;2022-07-23T06:36:22;17.40;54.90
15879;DHT22;61999;51.514;14.614;2022-07-23T06:38:51;17.40;54.80
15879;DHT22;61999;51.514;14.614;2022-07-23T06:41:20;17.50;54.80
15879;DHT22;61999;51.514;14.614;2022-07-23T06:43:49;17.50;55.40
15879;DHT22;61999;51.514;14.614;2022-07-23T06:46:17;17.60;54.60
15879;DHT22;61999;51.514;14.614;2022-07-23T06:48:49;17.70;54.50
15879;DHT22;61999;51.514;14.614;2022-07-23T06:51:17;17.80;54.30
15879;DHT22;61999;51.514;14.614;2022-07-23T06:53:46;17.80;54.20
15879;DHT22;61999;51.514;14.614;2022-07-23T06:56:14;17.90;54.00
15879;DHT22;61999;51.514;14.614;2022-07-23T06:58:43;17.90;53.90
15879;DHT22;61999;51.514;14.614;2022-07-23T07:01:11;17.90;54.00
15879;DHT22;61999;51.514;14.614;2022-07-23T07:03:39;18.00;53.90
15879;DHT22;61999;51.514;14.614;2022-07-23T07:06:09;18.00;53.80
15879;DHT22;61999;51.514;14.614;2022-07-23T07:08:38;18.00;53.80
15879;DHT22;61999;51.514;14.614;2022-07-23T07:11:06;18.10;53.80
15879;DHT22;61999;51.514;14.614;2022-07-23T07:13:35;18.10;53.90
15879;DHT22;61999;51.514;14.614;2022-07-23T07:16:04;18.10;53.80
15879;DHT22;61999;51.514;14.614;2022-07-23T07:18:33;18.20;53.90
15879;DHT22;61999;51.514;14.614;2022-07-23T07:21:01;18.30;53.50
15879;DHT22;61999;51.514;14.614;2022-07-23T07:23:31;18.40;53.30
15879;DHT22;61999;51.514;14.614;2022-07-23T07:25:59;18.40;53.20
15879;DHT22;61999;51.514;14.614;2022-07-23T07:28:28;18.40;53.20
15879;DHT22;61999;51.514;14.614;2022-07-23T07:30:56;18.40;53.10
15879;DHT22;61999;51.514;14.614;2022-07-23T07:33:24;18.30;53.10
15879;DHT22;61999;51.514;14.614;2022-07-23T07:35:53;18.40;53.10
15879;DHT22;61999;51.514;14.614;2022-07-23T07:38:21;18.40;52.90
15879;DHT22;61999;51.514;14.614;2022-07-23T07:40:51;18.40;52.70
15879;DHT22;61999;51.514;14.614;2022-07-23T07:43:19;18.40;52.70
15879;DHT22;61999;51.514;14.614;2022-07-23T07:45:48;18.40;52.90
15879;DHT22;61999;51.514;14.614;2022-07-23T07:48:16;18.40;52.90
15879;DHT22;61999;51.514;14.614;2022-07-23T07:50:44;18.50;52.70
15879;DHT22;61999;51.514;14.614;2022-07-23T07:53:13;18.50;52.80
15879;DHT22;61999;51.514;14.614;2022-07-23T07:55:41;18.60;52.80
15879;DHT22;61999;51.514;14.614;2022-07-23T07:58:11;18.60;52.70
15879;DHT22;61999;51.514;14.614;2022-07-23T08:00:39;18.60;52.70
15879;DHT22;61999;51.514;14.614;2022-07-23T08:03:08;18.60;52.70
15879;DHT22;61999;51.514;14.614;2022-07-23T08:05:36;18.60;52.60
15879;DHT22;61999;51.514;14.614;2022-07-23T08:08:05;18.70;52.60
15879;DHT22;61999;51.514;14.614;2022-07-23T08:10:34;18.80;52.50
15879;DHT22;61999;51.514;14.614;2022-07-23T08:13:03;18.90;52.10
15879;DHT22;61999;51.514;14.614;2022-07-23T08:15:32;19.00;52.00
15879;DHT22;61999;51.514;14.614;2022-07-23T08:18:01;19.00;51.70
15879;DHT22;61999;51.514;14.614;2022-07-23T08:20:29;19.00;52.40
15879;DHT22;61999;51.514;14.614;2022-07-23T08:23:00;19.00;51.60
15879;DHT22;61999;51.514;14.614;2022-07-23T08:25:32;19.00;51.50
15879;DHT22;61999;51.514;14.614;2022-07-23T08:28:04;19.00;51.40
15879;DHT22;61999;51.514;14.614;2022-07-23T08:30:38;19.00;51.30
15879;DHT22;61999;51.514;14.614;2022-07-23T08:33:09;19.00;51.50
15879;DHT22;61999;51.514;14.614;2022-07-23T08:35:41;19.00;51.60
15879;DHT22;61999;51.514;14.614;2022-07-23T08:38:13;19.10;51.90
15879;DHT22;61999;51.514;14.614;2022-07-23T08:40:45;19.30;52.20
15879;DHT22;61999;51.514;14.614;2022-07-23T08:43:18;19.50;52.10
15879;DHT22;61999;51.514;14.614;2022-07-23T08:45:52;19.70;51.40
15879;DHT22;61999;51.514;14.614;2022-07-23T08:48:25;19.90;51.80
15879;DHT22;61999;51.514;14.614;2022-07-23T08:50:56;20.20;51.60
15879;DHT22;61999;51.514;14.614;2022-07-23T08:53:27;20.40;51.60
15879;DHT22;61999;51.514;14.614;2022-07-23T08:55:58;20.70;51.10
15879;DHT22;61999;51.514;14.614;2022-07-23T08:58:31;20.90;51.00
15879;DHT22;61999;51.514;14.614;2022-07-23T09:01:02;21.20;49.90
15879;DHT22;61999;51.514;14.614;2022-07-23T09:03:33;21.30;49.80
15879;DHT22;61999;51.514;14.614;2022-07-23T09:06:03;21.50;49.60
15879;DHT22;61999;51.514;14.614;2022-07-23T09:08:36;21.70;49.30
15879;DHT22;61999;51.514;14.614;2022-07-23T09:11:07;21.80;49.20
15879;DHT22;61999;51.514;14.614;2022-07-23T09:13:38;22.00;49.00
15879;DHT22;61999;51.514;14.614;2022-07-23T09:16:13;22.10;48.30
15879;DHT22;61999;51.514;14.614;2022-07-23T09:18:45;22.30;48.50
15879;DHT22;61999;51.514;14.614;2022-07-23T09:21:23;22.30;47.40
15879;DHT22;61999;51.514;14.614;2022-07-23T09:23:55;22.40;47.00
15879;DHT22;61999;51.514;14.614;2022-07-23T09:26:28;22.50;47.10
15879;DHT22;61999;51.514;14.614;2022-07-23T09:29:07;22.50;46.80
15879;DHT22;61999;51.514;14.614;2022-07-23T09:31:46;22.60;47.20
15879;DHT22;61999;51.514;14.614;2022-07-23T09:34:19;22.80;47.30
15879;DHT22;61999;51.514;14.614;2022-07-23T09:36:51;22.90;47.40
15879;DHT22;61999;51.514;14.614;2022-07-23T09:39:29;23.10;47.20
15879;DHT22;61999;51.514;14.614;2022-07-23T09:42:13;23.20;45.50
15879;DHT22;61999;51.514;14.614;2022-07-23T09:44:44;23.20;45.50
15879;DHT22;61999;51.514;14.614;2022-07-23T09:47:18;23.20;45.50
15879;DHT22;61999;51.514;14.614;2022-07-23T09:49:58;23.00;43.20
15879;DHT22;61999;51.514;14.614;2022-07-23T09:52:28;23.10;43.80
15879;DHT22;61999;51.514;14.614;2022-07-23T09:54:59;23.00;44.20
15879;DHT22;61999;51.514;14.614;2022-07-23T09:57:32;22.80;44.40
15879;DHT22;61999;51.514;14.614;2022-07-23T10:00:06;22.80;44.70
15879;DHT22;61999;51.514;14.614;2022-07-23T10:02:39;22.70;44.50
15879;DHT22;61999;51.514;14.614;2022-07-23T10:05:08;22.60;44.60
15879;DHT22;61999;51.514;14.614;2022-07-23T10:07:37;22.80;43.50
15879;DHT22;61999;51.514;14.614;2022-07-23T10:10:10;22.60;44.20
15879;DHT22;61999;51.514;14.614;2022-07-23T10:12:43;22.50;44.80
15879;DHT22;61999;51.514;14.614;2022-07-23T10:15:30;22.50;44.40
15879;DHT22;61999;51.514;14.614;2022-07-23T10:17:59;22.40;45.10
15879;DHT22;61999;51.514;14.614;2022-07-23T10:20:28;22.40;45.10
15879;DHT22;61999;51.514;14.614;2022-07-23T10:23:02;22.40;44.90
15879;DHT22;61999;51.514;14.614;2022-07-23T10:25:40;22.40;45.30
15879;DHT22;61999;51.514;14.614;2022-07-23T10:28:27;22.50;45.20
15879;DHT22;61999;51.514;14.614;2022-07-23T10:31:20;22.50;45.30
15879;DHT22;61999;51.514;14.614;2022-07-23T10:34:23;22.50;45.20
15879;DHT22;61999;51.514;14.614;2022-07-23T10:37:03;22.60;45.20
15879;DHT22;61999;51.514;14.614;2022-07-23T10:39:41;22.60;45.30
15879;DHT22;61999;51.514;14.614;2022-07-23T10:42:10;22.70;45.30
15879;DHT22;61999;51.514;14.614;2022-07-23T10:44:42;22.80;44.80
15879;DHT22;61999;51.514;14.614;2022-07-23T10:47:37;22.80;45.00
15879;DHT22;61999;51.514;14.614;2022-07-23T10:50:23;22.90;45.20
15879;DHT22;61999;51.514;14.614;2022-07-23T10:53:15;23.10;45.30
15879;DHT22;61999;51.514;14.614;2022-07-23T10:55:48;23.20;45.00
15879;DHT22;61999;51.514;14.614;2022-07-23T10:58:21;23.40;45.10
15879;DHT22;61999;51.514;14.614;2022-07-23T11:00:53;23.70;45.80
15879;DHT22;61999;51.514;14.614;2022-07-23T11:03:31;24.00;45.10
15879;DHT22;61999;51.514;14.614;2022-07-23T11:06:05;24.20;44.40
15879;DHT22;61999;51.514;14.614;2022-07-23T11:08:34;24.50;41.20
15879;DHT22;61999;51.514;14.614;2022-07-23T11:11:09;24.90;40.80
15879;DHT22;61999;51.514;14.614;2022-07-23T11:13:41;24.90;41.00
15879;DHT22;61999;51.514;14.614;2022-07-23T11:16:24;24.90;41.40
15879;DHT22;61999;51.514;14.614;2022-07-23T11:18:59;24.80;41.10
15879;DHT22;61999;51.514;14.614;2022-07-23T11:21:49;24.80;41.20
15879;DHT22;61999;51.514;14.614;2022-07-23T11:24:20;24.90;40.80
15879;DHT22;61999;51.514;14.614;2022-07-23T11:27:01;24.90;40.10
15879;DHT22;61999;51.514;14.614;2022-07-23T11:29:47;25.00;40.20
15879;DHT22;61999;51.514;14.614;2022-07-23T11:32:37;25.00;39.80
15879;DHT22;61999;51.514;14.614;2022-07-23T11:35:36;25.10;38.90
15879;DHT22;61999;51.514;14.614;2022-07-23T11:38:13;25.10;38.80
15879;DHT22;61999;51.514;14.614;2022-07-23T11:40:45;24.80;39.10
15879;DHT22;61999;51.514;14.614;2022-07-23T11:43:14;24.60;39.60
15879;DHT22;61999;51.514;14.614;2022-07-23T11:45:46;24.40;40.20
15879;DHT22;61999;51.514;14.614;2022-07-23T11:48:19;24.20;40.50
15879;DHT22;61999;51.514;14.614;2022-07-23T11:50:49;24.20;41.10
15879;DHT22;61999;51.514;14.614;2022-07-23T11:53:27;24.50;39.90
15879;DHT22;61999;51.514;14.614;2022-07-23T11:56:03;24.10;40.50
15879;DHT22;61999;51.514;14.614;2022-07-23T11:58:34;23.70;41.00
15879;DHT22;61999;51.514;14.614;2022-07-23T12:01:03;23.50;41.70
15879;DHT22;61999;51.514;14.614;2022-07-23T12:03:32;23.30;42.10
15879;DHT22;61999;51.514;14.614;2022-07-23T12:06:01;23.00;42.70
15879;DHT22;61999;51.514;14.614;2022-07-23T12:08:31;22.80;43.30
15879;DHT22;61999;51.514;14.614;2022-07-23T12:10:59;22.80;43.50
15879;DHT22;61999;51.514;14.614;2022-07-23T12:13:28;22.70;43.60
15879;DHT22;61999;51.514;14.614;2022-07-23T12:15:57;22.80;43.50
15879;DHT22;61999;51.514;14.614;2022-07-23T12:18:27;22.60;43.70
15879;DHT22;61999;51.514;14.614;2022-07-23T12:20:56;22.20;44.10
15879;DHT22;61999;51.514;14.614;2022-07-23T12:23:27;22.00;44.40
15879;DHT22;61999;51.514;14.614;2022-07-23T12:26:02;21.80;44.80
15879;DHT22;61999;51.514;14.614;2022-07-23T12:28:31;21.70;45.20
15879;DHT22;61999;51.514;14.614;2022-07-23T12:31:03;21.80;45.30
15879;DHT22;61999;51.514;14.614;2022-07-23T12:33:34;21.80;45.40
15879;DHT22;61999;51.514;14.614;2022-07-23T12:36:07;21.80;45.30
15879;DHT22;61999;51.514;14.614;2022-07-23T12:38:39;21.90;45.30
15879;DHT22;61999;51.514;14.614;2022-07-23T12:41:11;22.10;45.20
15879;DHT22;61999;51.514;14.614;2022-07-23T12:43:40;22.20;44.90
15879;DHT22;61999;51.514;14.614;2022-07-23T12:46:12;22.30;44.80
15879;DHT22;61999;51.514;14.614;2022-07-23T12:48:51;22.40;44.50
15879;DHT22;61999;51.514;14.614;2022-07-23T12:51:21;22.90;42.60
15879;DHT22;61999;51.514;14.614;2022-07-23T12:53:53;22.70;42.70
15879;DHT22;61999;51.514;14.614;2022-07-23T12:56:29;22.30;44.10
15879;DHT22;61999;51.514;14.614;2022-07-23T12:59:04;22.10;44.40
15879;DHT22;61999;51.514;14.614;2022-07-23T13:01:37;22.10;44.10
15879;DHT22;61999;51.514;14.614;2022-07-23T13:04:08;22.30;44.00
15879;DHT22;61999;51.514;14.614;2022-07-23T13:06:40;22.20;44.30
15879;DHT22;61999;51.514;14.614;2022-07-23T13:09:13;22.30;44.20
15879;DHT22;61999;51.514;14.614;2022-07-23T13:11:45;22.30;44.40
15879;DHT22;61999;51.514;14.614;2022-07-23T13:14:18;22.30;44.30
15879;DHT22;61999;51.514;14.614;2022-07-23T13:16:52;22.30;44.20
15879;DHT22;61999;51.514;14.614;2022-07-23T13:19:33;22.30;44.30
15879;DHT22;61999;51.514;14.614;2022-07-23T13:22:01;22.40;44.70
15879;DHT22;61999;51.514;14.614;2022-07-23T13:24:34;22.90;43.10
15879;DHT22;61999;51.514;14.614;2022-07-23T13:27:04;23.00;42.80
15879;DHT22;61999;51.514;14.614;2022-07-23T13:29:35;23.00;42.20
15879;DHT22;61999;51.514;14.614;2022-07-23T13:32:04;22.80;42.90
15879;DHT22;61999;51.514;14.614;2022-07-23T13:34:34;22.50;43.30
15879;DHT22;61999;51.514;14.614;2022-07-23T13:37:02;22.40;43.70
15879;DHT22;61999;51.514;14.614;2022-07-23T13:39:31;22.40;44.00
15879;DHT22;61999;51.514;14.614;2022-07-23T13:42:05;22.60;43.30
15879;DHT22;61999;51.514;14.614;2022-07-23T13:44:34;22.50;43.60
15879;DHT22;61999;51.514;14.614;2022-07-23T13:47:03;22.50;43.40
15879;DHT22;61999;51.514;14.614;2022-07-23T13:49:31;22.50;43.70
15879;DHT22;61999;51.514;14.614;2022-07-23T13:52:00;22.50;43.60
15879;DHT22;61999;51.514;14.614;2022-07-23T13:54:29;22.80;42.80
15879;DHT22;61999;51.514;14.614;2022-07-23T13:56:57;22.60;43.10
15879;DHT22;61999;51.514;14.614;2022-07-23T13:59:27;22.40;43.50
15879;DHT22;61999;51.514;14.614;2022-07-23T14:01:55;22.40;44.20
15879;DHT22;61999;51.514;14.614;2022-07-23T14:04:44;22.50;44.80
15879;DHT22;61999;51.514;14.614;2022-07-23T14:07:12;22.80;43.70
15879;DHT22;61999;51.514;14.614;2022-07-23T14:09:41;23.00;44.10
15879;DHT22;61999;51.514;14.614;2022-07-23T14:12:10;23.30;44.10
15879;DHT22;61999;51.514;14.614;2022-07-23T14:14:39;23.40;43.70
15879;DHT22;61999;51.514;14.614;2022-07-23T14:17:09;23.60;43.30
15879;DHT22;61999;51.514;14.614;2022-07-23T14:19:39;23.70;42.70
15879;DHT22;61999;51.514;14.614;2022-07-23T14:22:08;23.80;42.80
15879;DHT22;61999;51.514;14.614;2022-07-23T14:24:36;23.90;41.80
15879;DHT22;61999;51.514;14.614;2022-07-23T14:27:04;24.00;42.00
15879;DHT22;61999;51.514;14.614;2022-07-23T14:29:33;23.90;42.20
15879;DHT22;61999;51.514;14.614;2022-07-23T14:32:04;24.00;42.50
15879;DHT22;61999;51.514;14.614;2022-07-23T14:34:33;23.90;41.60
15879;DHT22;61999;51.514;14.614;2022-07-23T14:37:02;24.00;40.50
15879;DHT22;61999;51.514;14.614;2022-07-23T14:39:31;23.80;40.80
15879;DHT22;61999;51.514;14.614;2022-07-23T14:42:00;23.30;41.70
15879;DHT22;61999;51.514;14.614;2022-07-23T14:44:29;23.20;41.80
15879;DHT22;61999;51.514;14.614;2022-07-23T14:46:57;23.00;42.70
15879;DHT22;61999;51.514;14.614;2022-07-23T14:49:27;22.90;43.50
15879;DHT22;61999;51.514;14.614;2022-07-23T14:51:56;23.10;43.20
15879;DHT22;61999;51.514;14.614;2022-07-23T14:54:26;23.20;43.90
15879;DHT22;61999;51.514;14.614;2022-07-23T14:56:58;23.40;43.30
15879;DHT22;61999;51.514;14.614;2022-07-23T14:59:27;23.60;41.20
15879;DHT22;61999;51.514;14.614;2022-07-23T15:01:57;23.80;41.80
15879;DHT22;61999;51.514;14.614;2022-07-23T15:04:25;24.00;40.80
15879;DHT22;61999;51.514;14.614;2022-07-23T15:07:04;24.10;39.80
15879;DHT22;61999;51.514;14.614;2022-07-23T15:09:33;24.20;39.30
15879;DHT22;61999;51.514;14.614;2022-07-23T15:12:01;24.10;38.10
15879;DHT22;61999;51.514;14.614;2022-07-23T15:14:30;23.80;39.10
15879;DHT22;61999;51.514;14.614;2022-07-23T15:17:00;23.60;39.40
15879;DHT22;61999;51.514;14.614;2022-07-23T15:19:29;23.20;39.80
15879;DHT22;61999;51.514;14.614;2022-07-23T15:21:57;23.00;39.90
15879;DHT22;61999;51.514;14.614;2022-07-23T15:24:28;22.60;40.80
15879;DHT22;61999;51.514;14.614;2022-07-23T15:26:56;22.40;41.40
15879;DHT22;61999;51.514;14.614;2022-07-23T15:29:25;22.40;41.90
15879;DHT22;61999;51.514;14.614;2022-07-23T15:31:53;22.30;41.20
15879;DHT22;61999;51.514;14.614;2022-07-23T15:34:23;22.40;40.70
15879;DHT22;61999;51.514;14.614;2022-07-23T15:36:51;22.20;41.50